createdAt,value
2023-03-28T00:04:17.395Z,102441.84
2023-03-28T00:14:38.905Z,102447.97
2023-03-28T00:25:00.424Z,102452.13
2023-03-28T00:35:22.101Z,102470.84
2023-03-28T00:45:43.578Z,102464.72
2023-03-28T00:56:07.251Z,102471.59
2023-03-28T01:06:32.827Z,102475.72
2023-03-28T01:16:56.374Z,102488.41
2023-03-28T01:27:26.837Z,102504.72
2023-03-28T01:37:54.347Z,102507.44
2023-03-28T01:48:15.665Z,102506.66
2023-03-28T01:58:46.447Z,102513.25
2023-03-28T02:09:09.752Z,102515.56
2023-03-28T02:19:33.793Z,102500.84
2023-03-28T02:29:55.502Z,102502.63
2023-03-28T02:40:19.840Z,102504.34
2023-03-28T02:50:59.944Z,102501.91
2023-03-28T03:01:22.049Z,102492.19
2023-03-28T03:11:43.415Z,102501.28
2023-03-28T03:22:04.773Z,102491.91
2023-03-28T03:32:26.361Z,102498.75
2023-03-28T03:42:47.689Z,102506.66
2023-03-28T03:53:09.073Z,102511.91
2023-03-28T04:03:30.549Z,102525.47
2023-03-28T04:13:52.151Z,102513.94
2023-03-28T04:24:15.649Z,102526.00
2023-03-28T04:34:39.053Z,102528.50
2023-03-28T04:45:00.551Z,102548.63
2023-03-28T04:55:21.905Z,102561.31
2023-03-28T05:05:43.263Z,102566.25
2023-03-28T05:16:05.138Z,102578.22
2023-03-28T05:26:28.004Z,102600.41
2023-03-28T05:36:51.055Z,102603.75
2023-03-28T05:47:12.471Z,102618.22
2023-03-28T05:57:34.561Z,102623.19
2023-03-28T06:07:55.929Z,102607.13
2023-03-28T06:18:17.444Z,102625.50
2023-03-28T06:28:38.815Z,102624.16
2023-03-28T06:39:01.518Z,102627.69
2023-03-28T06:49:22.906Z,102636.44
2023-03-28T06:59:44.267Z,102645.53
2023-03-28T07:10:06.066Z,102647.91
2023-03-28T07:20:27.709Z,102654.97
2023-03-28T07:30:49.108Z,102657.88
2023-03-28T07:41:10.850Z,102670.22
2023-03-28T07:51:32.219Z,102679.63
2023-03-28T08:01:53.585Z,102679.97
2023-03-28T08:12:14.978Z,102683.53
2023-03-28T08:22:36.584Z,102691.63
2023-03-28T08:32:58.043Z,102699.94
2023-03-28T08:43:31.734Z,102687.91
2023-03-28T08:54:01.326Z,102683.22
2023-03-28T09:04:31.809Z,102683.00
2023-03-28T09:15:12.056Z,102684.03
2023-03-28T09:25:42.638Z,102685.34
2023-03-28T09:36:09.723Z,102675.28
2023-03-28T09:46:39.404Z,102679.91
2023-03-28T09:57:02.453Z,102687.94
2023-03-28T10:07:29.845Z,102665.72
2023-03-28T10:17:51.258Z,102668.25
2023-03-28T10:28:18.040Z,102661.44
2023-03-28T10:38:43.228Z,102656.41
2023-03-28T10:49:13.533Z,102659.88
2023-03-28T10:59:53.714Z,102658.03
2023-03-28T11:10:18.148Z,102644.34
2023-03-28T11:20:45.824Z,102649.72
2023-03-28T11:31:12.278Z,102639.44
2023-03-28T11:41:36.098Z,102630.94
2023-03-28T11:52:01.200Z,102628.44
2023-03-28T12:02:43.942Z,102611.34
2023-03-28T12:13:14.796Z,102599.38
2023-03-28T12:23:37.970Z,102591.63
2023-03-28T12:34:07.923Z,102583.88
2023-03-28T12:44:39.921Z,102571.81
2023-03-28T12:55:02.712Z,102558.03
2023-03-28T13:05:27.148Z,102539.13
2023-03-28T13:15:54.050Z,102534.88
2023-03-28T13:26:15.598Z,102523.75
2023-03-28T13:36:37.048Z,102505.88
2023-03-28T13:46:58.591Z,102488.69
2023-03-28T13:57:21.151Z,102477.50
2023-03-28T14:07:42.720Z,102462.06
2023-03-28T14:18:04.216Z,102438.84
2023-03-28T14:28:27.911Z,102427.66
2023-03-28T14:38:49.278Z,102399.22
2023-03-28T14:49:18.126Z,102382.84
2023-03-28T14:59:44.927Z,102373.38
2023-03-28T15:10:21.144Z,102356.97
2023-03-28T15:20:44.117Z,102337.91
2023-03-28T15:31:05.629Z,102323.03
2023-03-28T15:41:41.016Z,102322.41
2023-03-28T15:52:05.002Z,102320.75
2023-03-28T16:02:26.718Z,102301.81
2023-03-28T16:12:48.472Z,102294.97
2023-03-28T16:23:11.019Z,102282.94
2023-03-28T16:33:32.446Z,102276.09
2023-03-28T16:43:54.213Z,102273.53
2023-03-28T16:54:15.643Z,102252.03
2023-03-28T17:04:37.021Z,102256.34
2023-03-28T17:14:58.388Z,102249.44
2023-03-28T17:25:19.789Z,102239.13
2023-03-28T17:35:41.282Z,102218.50
2023-03-28T17:46:03.072Z,102208.16
2023-03-28T17:56:25.636Z,102199.56
2023-03-28T18:06:47.061Z,102198.69
2023-03-28T18:17:08.451Z,102190.09
2023-03-28T18:27:29.816Z,102187.53
2023-03-28T18:37:51.829Z,102182.38
2023-03-28T18:48:14.108Z,102173.75
2023-03-28T18:58:38.871Z,102181.50
2023-03-28T19:09:00.216Z,102169.47
2023-03-28T19:19:22.484Z,102168.59
2023-03-28T19:29:43.880Z,102153.97
2023-03-28T19:40:09.414Z,102160.00
2023-03-28T19:50:33.441Z,102155.72
2023-03-28T20:00:55.771Z,102171.97
2023-03-28T20:11:17.454Z,102162.41
2023-03-28T20:21:38.896Z,102147.81
2023-03-28T20:32:00.663Z,102128.94
2023-03-28T20:42:22.151Z,102114.34
2023-03-28T20:52:43.500Z,102086.88
2023-03-28T21:03:04.945Z,102099.75
2023-03-28T21:13:27.039Z,102091.19
2023-03-28T21:23:48.816Z,102084.28
2023-03-28T21:34:10.255Z,102068.84
2023-03-28T21:44:32.065Z,102057.69
2023-03-28T21:54:54.655Z,102042.25
2023-03-28T22:05:28.716Z,102029.31
2023-03-28T22:15:52.484Z,102020.78
2023-03-28T22:26:14.286Z,102017.31
2023-03-28T22:36:35.953Z,102009.59
2023-03-28T22:47:02.348Z,101996.69
2023-03-28T22:57:23.797Z,101990.72
2023-03-28T23:07:45.319Z,101980.41
2023-03-28T23:18:07.931Z,101968.38
2023-03-28T23:28:29.349Z,101950.34
2023-03-28T23:38:51.055Z,101936.59
2023-03-28T23:49:12.411Z,101916.84
2023-03-28T23:59:33.977Z,101896.25
